Time;durP1;ratioP1;P1;durP2;ratioP2;P2;SDS_P1;SDS_P2;PMS_P1;PMS_P2;Temp;Humidity;BMP_temperature;BMP_pressure;BME280_temperature;BME280_humidity;BME280_pressure;Samples;Min_cycle;Max_cycle;Signal;HPM_P1;HPM_P2
2021/07/22 00:00:10;;;;;;;;;3.00;2.00;;;;;23.49;49.57;98992.53;4911716;28;104162;-82
2021/07/22 00:02:37;;;;;;;;;3.67;3.00;;;;;23.47;49.45;98994.72;4918047;28;102442;-82
2021/07/22 00:05:05;;;;;;;;;2.33;2.33;;;;;23.48;49.57;98993.63;4909987;28;102800;-82
2021/07/22 00:07:33;;;;;;;;;3.00;3.00;;;;;23.48;49.37;98998.31;4928386;28;102320;-83
2021/07/22 00:10:02;;;;;;;;;2.00;2.00;;;;;23.47;49.51;98996.66;4907555;28;109445;-83
2021/07/22 00:12:38;;;;;;;;;3.33;2.67;;;;;23.47;49.51;98996.66;4907044;28;102526;-82
2021/07/22 00:15:12;;;;;;;;;2.67;2.67;;;;;23.46;49.65;99004.09;4907504;28;102800;-83
2021/07/22 00:17:49;;;;;;;;;2.67;2.67;;;;;23.46;49.54;99000.53;4908439;28;102609;-82
2021/07/22 00:20:23;;;;;;;;;3.33;3.33;;;;;23.45;49.42;99007.97;4899685;28;104225;-82
2021/07/22 00:22:59;;;;;;;;;4.33;2.33;;;;;23.45;49.32;98994.19;4912771;28;104763;-83
2021/07/22 00:25:37;;;;;;;;;3.00;3.00;;;;;23.44;49.51;98997.19;4910472;28;103056;-82
2021/07/22 00:28:10;;;;;;;;;3.00;2.67;;;;;23.44;49.43;98998.03;4923991;28;103182;-82
2021/07/22 00:30:47;;;;;;;;;2.00;2.00;;;;;23.43;49.35;98995.50;4911124;28;105234;-82
2021/07/22 00:33:25;;;;;;;;;1.67;1.67;;;;;23.42;49.31;98999.38;4921509;28;102766;-82
2021/07/22 00:35:58;;;;;;;;;3.00;3.00;;;;;23.42;49.27;98993.84;4910012;28;102812;-83
2021/07/22 00:38:35;;;;;;;;;3.33;3.00;;;;;23.41;49.46;98990.28;4925398;28;102576;-83
2021/07/22 00:41:11;;;;;;;;;2.33;2.33;;;;;23.41;49.26;98986.69;4913443;28;107913;-82
2021/07/22 00:43:46;;;;;;;;;4.67;3.00;;;;;23.39;49.20;98994.41;4901447;28;102641;-82
2021/07/22 00:46:18;;;;;;;;;2.67;2.33;;;;;23.39;49.43;98988.88;4924605;28;102780;-83
2021/07/22 00:48:47;;;;;;;;;4.33;3.67;;;;;23.38;49.32;98989.97;4927191;28;108642;-82
2021/07/22 00:51:14;;;;;;;;;2.00;2.00;;;;;23.37;49.31;98993.88;4924071;28;104083;-82
2021/07/22 00:53:41;;;;;;;;;3.00;3.00;;;;;23.36;49.42;98983.91;4933018;28;102262;-82
2021/07/22 00:56:08;;;;;;;;;4.33;2.67;;;;;23.36;49.45;98995.78;4925111;28;102453;-82
2021/07/22 00:58:35;;;;;;;;;3.33;3.33;;;;;23.36;49.16;98989.44;4916303;28;102733;-82
2021/07/22 01:01:03;;;;;;;;;2.67;2.67;;;;;23.36;49.14;98983.91;4893057;28;108949;-83
2021/07/22 01:03:38;;;;;;;;;3.00;3.00;;;;;23.35;49.35;98988.63;4911617;28;103632;-82
2021/07/22 01:06:06;;;;;;;;;2.00;2.00;;;;;23.34;49.24;98986.13;4901852;28;102675;-82
2021/07/22 01:08:33;;;;;;;;;3.67;3.67;;;;;23.33;49.33;98990.81;4901322;28;103075;-82
2021/07/22 01:11:01;;;;;;;;;4.00;4.00;;;;;23.31;49.05;98982.00;4903577;28;104233;-82
2021/07/22 01:13:32;;;;;;;;;4.33;4.00;;;;;23.33;49.34;98978.94;4908901;28;104659;-82
2021/07/22 01:16:08;;;;;;;;;4.00;4.00;;;;;23.32;49.25;98980.88;4914355;28;102432;-83
2021/07/22 01:18:42;;;;;;;;;2.67;2.00;;;;;23.32;49.16;98988.34;4910100;28;104341;-82
2021/07/22 01:21:17;;;;;;;;;3.50;3.50;;;;;23.30;49.04;98983.09;4901832;28;107556;-82
2021/07/22 01:23:55;;;;;;;;;3.67;3.00;;;;;23.30;49.10;98979.50;4920579;28;102451;-82
2021/07/22 01:26:32;;;;;;;;;3.33;3.00;;;;;23.29;49.06;98984.19;4924353;28;102274;-84
2021/07/22 01:29:07;;;;;;;;;4.33;4.00;;;;;23.29;49.07;98988.88;4904228;28;102821;-84
2021/07/22 01:31:42;;;;;;;;;2.67;2.67;;;;;23.28;49.06;98992.75;4901424;28;108125;-84
2021/07/22 01:34:15;;;;;;;;;4.00;3.00;;;;;23.28;49.25;98984.47;4860539;28;102314;-84
2021/07/22 01:36:54;;;;;;;;;4.00;4.00;;;;;23.27;49.09;98985.56;4913196;28;102548;-84
2021/07/22 01:39:27;;;;;;;;;3.67;3.67;;;;;23.26;49.12;98990.25;4921296;28;102720;-84
2021/07/22 01:42:04;;;;;;;;;2.33;2.33;;;;;23.25;48.98;98982.25;4923381;28;103475;-84
2021/07/22 01:44:41;;;;;;;;;3.00;2.33;;;;;23.25;49.08;98982.25;4916839;28;104401;-84
2021/07/22 01:47:16;;;;;;;;;4.00;4.00;;;;;23.23;48.90;98988.06;4918589;28;105190;-84
2021/07/22 01:49:54;;;;;;;;;4.00;3.00;;;;;23.23;49.05;98978.94;4918678;28;102738;-85
2021/07/22 01:52:31;;;;;;;;;3.67;3.00;;;;;23.22;48.86;98980.03;4937376;28;103897;-84
2021/07/22 01:54:58;;;;;;;;;3.33;3.33;;;;;23.20;49.13;98974.78;4929660;28;103143;-82
2021/07/22 01:57:25;;;;;;;;;4.00;4.00;;;;;23.20;48.89;98985.00;4925904;28;106121;-83
2021/07/22 01:59:57;;;;;;;;;5.67;5.33;;;;;23.20;48.88;98990.50;4930537;28;104664;-82
2021/07/22 02:02:24;;;;;;;;;4.67;4.67;;;;;23.20;49.09;98982.22;4928647;28;104411;-82
2021/07/22 02:04:52;;;;;;;;;4.00;3.67;;;;;23.19;48.93;98983.34;4920816;28;102952;-83
2021/07/22 02:07:20;;;;;;;;;3.33;3.33;;;;;23.20;48.60;98987.75;4927684;28;103752;-82
2021/07/22 02:09:48;;;;;;;;;4.33;3.67;;;;;23.18;48.88;98989.97;4921732;28;102704;-83
2021/07/22 02:12:15;;;;;;;;;4.00;4.00;;;;;23.18;48.89;98995.47;4915574;28;104160;-82
2021/07/22 02:14:43;;;;;;;;;2.67;2.67;;;;;23.17;49.09;98985.53;4912890;28;103311;-82
2021/07/22 02:17:10;;;;;;;;;5.67;4.00;;;;;23.16;48.98;98994.91;4908290;28;103113;-83
2021/07/22 02:19:37;;;;;;;;;3.67;2.67;;;;;23.14;48.86;98986.94;4915615;28;102929;-83
2021/07/22 02:22:06;;;;;;;;;2.67;2.67;;;;;23.13;48.97;98977.81;4900733;28;104546;-83
2021/07/22 02:24:36;;;;;;;;;2.67;2.00;;;;;23.14;48.77;98993.25;4912683;28;102618;-84
2021/07/22 02:27:04;;;;;;;;;3.67;3.67;;;;;23.13;48.85;98986.09;4844226;28;102505;-84
2021/07/22 02:29:32;;;;;;;;;2.33;2.33;;;;;23.12;48.92;98992.72;4913258;28;102958;-84
2021/07/22 02:32:03;;;;;;;;;3.33;3.33;;;;;23.11;48.91;98993.81;4911219;28;103495;-84
2021/07/22 02:34:31;;;;;;;;;3.67;3.67;;;;;23.11;48.87;98992.97;4916639;28;104627;-84
2021/07/22 02:36:58;;;;;;;;;3.00;3.00;;;;;23.10;48.75;98992.16;4845159;28;106320;-84
2021/07/22 02:39:26;;;;;;;;;3.00;2.67;;;;;23.10;48.79;98997.66;4898500;28;104758;-84
2021/07/22 02:41:53;;;;;;;;;3.00;3.00;;;;;23.09;48.55;98998.78;4905143;28;104297;-84
2021/07/22 02:44:24;;;;;;;;;3.67;3.00;;;;;23.10;48.78;99005.09;4927353;28;103350;-84
2021/07/22 02:46:52;;;;;;;;;2.67;2.67;;;;;23.08;48.79;99005.41;4911300;28;102695;-83
2021/07/22 02:49:19;;;;;;;;;4.00;4.00;;;;;23.07;48.71;98998.22;4920292;28;103583;-83
2021/07/22 02:51:48;;;;;;;;;5.00;5.00;;;;;23.08;48.69;98999.06;4930434;28;104109;-83
2021/07/22 02:54:15;;;;;;;;;3.00;3.00;;;;;23.07;48.65;99000.97;4928160;28;104763;-83
2021/07/22 02:56:43;;;;;;;;;4.00;3.67;;;;;23.06;48.66;99002.06;4912768;28;104627;-84
2021/07/22 02:59:10;;;;;;;;;4.00;3.33;;;;;23.06;48.59;99002.06;4916371;28;102684;-84
2021/07/22 03:01:37;;;;;;;;;3.67;3.67;;;;;23.05;48.58;98992.16;4918492;28;104293;-84
2021/07/22 03:04:06;;;;;;;;;2.33;2.33;;;;;23.05;48.49;98997.69;4918303;28;103677;-84
2021/07/22 03:06:33;;;;;;;;;3.67;3.67;;;;;23.06;48.46;99001.25;4927945;28;102237;-85
2021/07/22 03:09:01;;;;;;;;;4.00;3.67;;;;;23.05;48.49;99005.94;4931092;28;104567;-84
2021/07/22 03:11:28;;;;;;;;;4.00;4.00;;;;;23.05;48.46;99000.44;4929732;28;104209;-84
2021/07/22 03:13:58;;;;;;;;;3.33;3.00;;;;;23.05;48.33;99005.94;4921415;28;108722;-84
2021/07/22 03:16:31;;;;;;;;;4.33;3.33;;;;;23.04;48.40;99000.69;4895763;28;103286;-84
2021/07/22 03:18:59;;;;;;;;;2.33;2.33;;;;;23.03;48.50;99002.63;4893388;28;103039;-85
2021/07/22 03:21:27;;;;;;;;;4.33;4.33;;;;;23.03;48.32;98999.03;4891957;28;104812;-84
2021/07/22 03:23:54;;;;;;;;;4.00;4.00;;;;;23.02;48.34;99002.88;4921017;28;102225;-84
2021/07/22 03:26:22;;;;;;;;;3.00;3.00;;;;;23.01;48.49;98999.28;4900011;28;102964;-83
2021/07/22 03:28:49;;;;;;;;;3.00;3.00;;;;;23.01;48.44;98998.50;4933516;28;103883;-82
2021/07/22 03:31:17;;;;;;;;;3.00;3.00;;;;;23.00;48.38;99000.41;4926938;28;105038;-83
2021/07/22 03:33:45;;;;;;;;;4.00;4.00;;;;;22.99;48.28;99004.28;4924098;28;102647;-82
2021/07/22 03:36:12;;;;;;;;;5.00;4.33;;;;;22.99;48.35;99004.28;4937290;28;103182;-83
2021/07/22 03:38:40;;;;;;;;;4.00;4.00;;;;;22.98;48.26;99007.28;4933475;28;103860;-82
2021/07/22 03:41:07;;;;;;;;;3.33;3.33;;;;;22.99;48.08;99004.28;4910841;28;105278;-83
2021/07/22 03:43:34;;;;;;;;;3.00;3.00;;;;;22.99;48.23;99006.19;4931160;28;103786;-83
2021/07/22 03:46:01;;;;;;;;;7.00;4.33;;;;;22.99;48.35;99011.72;4920761;28;102917;-82
2021/07/22 03:48:33;;;;;;;;;3.67;3.00;;;;;23.00;48.08;99011.44;4925580;28;102732;-83
2021/07/22 03:51:00;;;;;;;;;4.00;3.67;;;;;22.99;47.81;99009.78;4923158;28;104282;-83
2021/07/22 03:53:27;;;;;;;;;3.67;3.33;;;;;22.99;47.96;99007.03;4921816;28;102487;-82
2021/07/22 03:55:56;;;;;;;;;4.67;3.67;;;;;22.99;48.01;99009.78;4927607;28;102447;-83
2021/07/22 03:58:23;;;;;;;;;3.33;3.33;;;;;23.00;47.88;99008.69;4933768;28;102806;-82
2021/07/22 04:00:54;;;;;;;;;4.00;3.00;;;;;23.02;47.70;99006.47;4922819;28;104259;-82
2021/07/22 04:03:21;;;;;;;;;2.67;2.67;;;;;23.02;47.88;99006.47;4916344;28;104420;-82
2021/07/22 04:05:48;;;;;;;;;5.00;5.00;;;;;23.02;47.71;99003.72;4925053;28;102491;-82
2021/07/22 04:08:16;;;;;;;;;4.00;4.00;;;;;22.99;47.86;99004.28;4910156;28;103673;-82
2021/07/22 04:10:43;;;;;;;;;4.00;4.00;;;;;23.01;47.80;99004.00;4928188;28;104235;-83
2021/07/22 04:13:10;;;;;;;;;5.67;3.33;;;;;22.96;47.75;99007.59;4927688;28;104271;-83
2021/07/22 04:15:37;;;;;;;;;5.00;5.00;;;;;22.99;47.81;99007.03;4923765;28;102754;-83
2021/07/22 04:18:04;;;;;;;;;3.00;3.00;;;;;22.99;47.84;99000.69;4925061;28;102188;-83
2021/07/22 04:20:32;;;;;;;;;5.33;4.00;;;;;22.99;47.64;99000.69;4932465;28;104745;-82
2021/07/22 04:22:59;;;;;;;;;3.67;3.00;;;;;22.99;47.52;99009.78;4927764;28;102535;-83
2021/07/22 04:25:26;;;;;;;;;3.50;3.50;;;;;22.99;47.69;99009.78;4923267;28;102389;-84
2021/07/22 04:27:53;;;;;;;;;7.00;6.00;;;;;22.99;47.55;99007.03;4916226;28;102196;-84
2021/07/22 04:30:22;;;;;;;;;4.67;4.67;;;;;23.01;47.52;99004.81;4881812;28;104344;-84
2021/07/22 04:33:19;;;;;;;;;4.33;3.00;;;;;22.98;47.20;99008.13;4706230;28;104350;-85
2021/07/22 04:36:26;;;;;;;;;5.00;4.00;;;;;22.96;47.67;99015.84;4537798;28;108056;-84
2021/07/22 04:39:43;;;;;;;;;5.00;5.00;;;;;22.98;47.54;99016.41;4587463;28;103198;-85
2021/07/22 04:43:30;;;;;;;;;5.67;5.00;;;;;22.94;48.16;99020.81;4698054;28;107283;-85
2021/07/22 06:13:36;;;;;;;;;5.00;5.00;;;;;22.95;47.35;99022.47;1000266;22;103597;-82
2021/07/22 06:35:22;;;;;;;;;5.67;4.67;;;;;22.99;47.39;99034.63;4716375;28;102555;-81
2021/07/22 06:37:50;;;;;;;;;5.00;5.00;;;;;22.99;47.46;99029.09;4877044;28;103180;-82
2021/07/22 06:40:17;;;;;;;;;4.00;4.00;;;;;22.99;47.44;99029.09;4866843;28;103260;-82
2021/07/22 06:42:44;;;;;;;;;5.00;5.00;;;;;23.00;47.46;99025.25;4874712;28;104109;-83
2021/07/22 06:45:12;;;;;;;;;5.33;5.00;;;;;23.00;47.45;99022.47;4899461;28;102441;-83
2021/07/22 06:47:39;;;;;;;;;4.00;4.00;;;;;23.01;47.37;99026.88;4897060;28;102477;-83
2021/07/22 06:50:08;;;;;;;;;4.67;4.00;;;;;23.01;47.52;99023.31;4886991;28;102677;-83
2021/07/22 06:52:38;;;;;;;;;5.67;5.00;;;;;23.03;47.36;99021.09;4884956;28;104242;-83
2021/07/22 06:55:05;;;;;;;;;5.00;4.00;;;;;23.03;47.87;99018.34;4896942;28;102741;-82
2021/07/22 06:57:33;;;;;;;;;5.33;4.33;;;;;23.04;47.58;99018.09;4879424;28;102513;-83
2021/07/22 07:00:01;;;;;;;;;4.67;4.67;;;;;23.02;47.78;99012.00;4897879;28;103172;-83
2021/07/22 07:02:28;;;;;;;;;7.33;6.00;;;;;23.06;47.56;99024.13;4866271;28;104744;-83
2021/07/22 07:04:55;;;;;;;;;5.00;5.00;;;;;23.06;47.75;99018.63;4894863;28;103725;-81
2021/07/22 07:07:22;;;;;;;;;5.00;5.00;;;;;23.06;47.56;99018.63;4906112;28;102654;-82
2021/07/22 07:09:49;;;;;;;;;5.00;4.00;;;;;23.07;47.71;99014.78;4894195;28;102631;-82
2021/07/22 07:12:17;;;;;;;;;3.67;3.00;;;;;23.10;47.68;99016.13;4898043;28;104273;-82
2021/07/22 07:14:44;;;;;;;;;5.00;5.00;;;;;23.09;47.61;99017.25;4899072;28;109287;-82
2021/07/22 07:17:11;;;;;;;;;5.33;5.00;;;;;23.10;47.68;99019.72;4890685;28;102661;-81
2021/07/22 07:19:39;;;;;;;;;5.00;4.00;;;;;23.10;47.72;99022.50;4893728;28;102601;-82
2021/07/22 07:22:06;;;;;;;;;5.00;5.00;;;;;23.12;47.62;99022.22;4902187;28;104434;-82
2021/07/22 07:24:34;;;;;;;;;4.00;4.00;;;;;23.13;47.71;99030.25;4896453;28;102470;-81
2021/07/22 07:27:01;;;;;;;;;4.00;4.00;;;;;23.13;47.67;99018.38;4885551;28;103993;-82
2021/07/22 07:29:28;;;;;;;;;4.33;4.33;;;;;23.16;47.81;99028.03;4898084;28;102492;-82
2021/07/22 07:31:59;;;;;;;;;5.00;5.00;;;;;23.16;47.59;99022.50;4873921;28;104278;-82
2021/07/22 07:34:26;;;;;;;;;4.33;4.00;;;;;23.17;47.59;99013.13;4849925;28;102608;-82
2021/07/22 07:36:54;;;;;;;;;6.33;5.00;;;;;23.17;47.67;99013.97;4856679;28;102458;-82
2021/07/22 07:39:21;;;;;;;;;5.00;5.00;;;;;23.18;47.72;99020.31;4872567;28;102768;-82
2021/07/22 07:41:48;;;;;;;;;5.00;5.00;;;;;23.19;47.72;99014.50;4882682;28;104089;-81
2021/07/22 07:44:15;;;;;;;;;6.00;5.33;;;;;23.20;47.77;99009.81;4874153;28;104861;-82
2021/07/22 07:46:43;;;;;;;;;5.67;5.00;;;;;23.21;47.72;99014.25;4878033;28;102614;-82
2021/07/22 07:49:10;;;;;;;;;5.33;4.33;;;;;23.21;47.69;99008.72;4888614;28;102469;-82
2021/07/22 07:51:37;;;;;;;;;5.00;5.00;;;;;23.22;47.83;99015.91;4861560;28;103058;-82
2021/07/22 07:54:04;;;;;;;;;5.33;4.67;;;;;23.22;47.64;99007.63;4878962;28;102547;-84
2021/07/22 07:56:31;;;;;;;;;4.33;4.33;;;;;23.23;47.67;99012.06;4894581;28;102645;-84
2021/07/22 07:58:58;;;;;;;;;3.00;3.00;;;;;23.24;47.81;99002.66;4878755;28;102655;-85
2021/07/22 08:01:29;;;;;;;;;5.67;5.33;;;;;23.24;48.06;99006.25;4877862;28;104124;-85
2021/07/22 08:03:57;;;;;;;;;5.67;4.67;;;;;23.25;47.73;99018.94;4872554;28;102780;-83
2021/07/22 08:06:24;;;;;;;;;4.33;3.33;;;;;23.26;47.66;99005.97;4871160;28;103128;-86
2021/07/22 08:08:51;;;;;;;;;5.33;5.00;;;;;23.28;47.71;99009.31;4880744;28;103451;-85
2021/07/22 08:11:18;;;;;;;;;4.67;4.00;;;;;23.28;47.95;99009.31;4878474;28;104294;-85
2021/07/22 08:13:46;;;;;;;;;5.00;5.00;;;;;23.28;47.88;98999.06;4872084;28;105878;-85
2021/07/22 08:16:17;;;;;;;;;5.00;4.00;;;;;23.30;47.75;99004.31;4882928;28;103564;-85
2021/07/22 08:18:45;;;;;;;;;4.00;3.67;;;;;23.30;47.90;98999.63;4882539;28;102509;-85
2021/07/22 08:21:13;;;;;;;;;4.67;4.67;;;;;23.31;47.81;99003.22;4870162;28;104170;-85
2021/07/22 08:23:40;;;;;;;;;4.00;4.00;;;;;23.31;47.95;99006.00;4881447;28;102442;-85
2021/07/22 08:26:09;;;;;;;;;4.00;4.00;;;;;23.31;48.00;99004.06;4880508;28;102304;-85
2021/07/22 08:28:36;;;;;;;;;4.33;4.33;;;;;23.33;47.87;99001.00;4870765;28;102464;-85
2021/07/22 08:31:04;;;;;;;;;6.33;5.00;;;;;23.33;48.03;99001.00;4896248;28;104110;-85
2021/07/22 08:33:31;;;;;;;;;6.00;4.00;;;;;23.34;48.02;99003.50;4895670;28;102127;-85
2021/07/22 08:35:58;;;;;;;;;4.00;4.00;;;;;23.34;48.05;98999.91;4869317;28;102322;-85
2021/07/22 08:38:25;;;;;;;;;4.33;4.00;;;;;23.36;47.97;99006.00;4879274;28;102573;-85
2021/07/22 08:40:53;;;;;;;;;4.67;4.00;;;;;23.36;47.92;99003.25;4897839;28;109147;-85
2021/07/22 08:43:20;;;;;;;;;2.67;2.00;;;;;23.36;47.91;98992.19;4870716;28;103511;-86
2021/07/22 08:45:48;;;;;;;;;5.33;5.00;;;;;23.37;47.99;98996.63;4889372;28;103682;-86
2021/07/22 08:48:15;;;;;;;;;5.00;5.00;;;;;23.37;48.26;98991.91;4895343;28;103400;-85
2021/07/22 08:50:44;;;;;;;;;5.67;5.67;;;;;23.38;48.15;98992.75;4888686;28;104097;-85
2021/07/22 08:53:11;;;;;;;;;3.33;3.33;;;;;23.40;48.19;98998.81;4879395;28;102814;-85
2021/07/22 08:55:38;;;;;;;;;3.00;3.00;;;;;23.40;48.07;98993.31;4896511;28;102259;-83
2021/07/22 08:58:07;;;;;;;;;2.67;2.67;;;;;23.42;48.03;98993.84;4868824;28;102604;-83
2021/07/22 09:00:34;;;;;;;;;4.33;3.33;;;;;23.43;48.01;98990.00;4905870;28;104057;-83
2021/07/22 09:03:02;;;;;;;;;4.00;4.00;;;;;23.43;48.06;98990.00;4881200;28;107088;-83
2021/07/22 09:05:29;;;;;;;;;4.00;4.00;;;;;23.44;48.20;98991.69;4853821;28;102674;-83
2021/07/22 09:07:57;;;;;;;;;4.00;3.00;;;;;23.43;47.99;98982.53;4908647;28;102222;-83
2021/07/22 09:10:24;;;;;;;;;4.00;4.00;;;;;23.44;48.27;98988.91;4891774;28;109919;-83
2021/07/22 09:12:52;;;;;;;;;4.00;4.00;;;;;23.45;48.21;98985.06;4897905;28;102544;-83
2021/07/22 09:15:25;;;;;;;;;3.67;3.33;;;;;23.46;48.24;98993.06;4901367;28;103411;-83
2021/07/22 09:18:22;;;;;;;;;4.50;4.50;;;;;23.47;48.07;98991.13;4830313;28;102484;-83
2021/07/22 09:20:49;;;;;;;;;3.33;3.33;;;;;23.47;48.07;98996.66;4867068;28;104247;-83
2021/07/22 09:23:24;;;;;;;;;3.67;3.67;;;;;23.45;48.21;98987.81;4897609;28;103250;-83
2021/07/22 09:25:52;;;;;;;;;4.00;3.67;;;;;23.49;48.23;98994.44;4892558;28;102842;-83
2021/07/22 09:28:24;;;;;;;;;3.67;3.67;;;;;23.46;48.09;98983.97;4897999;28;102658;-83
2021/07/22 09:30:59;;;;;;;;;4.67;4.33;;;;;23.50;48.17;98990.59;4877070;28;105455;-83
2021/07/22 09:33:40;;;;;;;;;4.33;4.33;;;;;23.50;47.98;98996.13;4835686;28;103066;-83
2021/07/22 09:36:34;;;;;;;;;3.00;3.00;;;;;23.50;48.15;98990.59;4809584;28;102469;-83
2021/07/22 09:39:22;;;;;;;;;3.00;3.00;;;;;23.52;48.22;98993.88;4856795;28;102538;-83
2021/07/22 09:42:02;;;;;;;;;4.00;4.00;;;;;23.51;48.26;98987.53;4887000;28;103864;-83
2021/07/22 09:44:35;;;;;;;;;4.00;4.00;;;;;23.51;48.14;98986.69;4855098;28;102812;-83
2021/07/22 09:47:03;;;;;;;;;4.00;4.00;;;;;23.53;48.19;98984.50;4879556;28;102561;-83
2021/07/22 09:49:31;;;;;;;;;6.00;6.00;;;;;23.53;48.18;98984.50;4875488;28;102646;-83
2021/07/22 09:52:02;;;;;;;;;4.67;4.00;;;;;23.54;48.26;98986.19;4863319;28;104428;-83
2021/07/22 09:54:34;;;;;;;;;3.00;3.00;;;;;23.54;48.15;98984.25;4867858;28;104949;-84
2021/07/22 09:57:02;;;;;;;;;5.33;4.67;;;;;23.54;48.33;98975.13;4870822;28;103717;-85
2021/07/22 09:59:30;;;;;;;;;3.33;3.33;;;;;23.53;48.13;98979.81;4875500;28;102577;-85
2021/07/22 10:02:03;;;;;;;;;4.00;4.00;;;;;23.56;48.19;98975.66;4880064;28;104227;-85
2021/07/22 10:04:31;;;;;;;;;3.00;3.00;;;;;23.56;48.22;98978.44;4882456;28;102611;-85
2021/07/22 10:07:02;;;;;;;;;5.33;5.00;;;;;23.58;48.09;98979.00;4870313;28;102558;-85
2021/07/22 10:09:33;;;;;;;;;4.00;3.33;;;;;23.58;48.23;98970.72;4876688;28;103982;-85
2021/07/22 10:12:02;;;;;;;;;3.00;3.00;;;;;23.57;48.22;98971.81;4872697;28;104165;-85
2021/07/22 10:14:30;;;;;;;;;6.00;4.00;;;;;23.58;48.33;98961.59;4854933;28;104809;-83
2021/07/22 10:16:59;;;;;;;;;4.33;3.33;;;;;23.58;48.20;98976.22;4878540;28;102219;-86
2021/07/22 10:19:28;;;;;;;;;3.00;3.00;;;;;23.58;48.31;98972.66;4868764;28;102350;-85
2021/07/22 10:21:56;;;;;;;;;4.67;4.00;;;;;23.59;48.33;98972.38;4852205;28;109539;-85
2021/07/22 10:24:23;;;;;;;;;3.00;3.00;;;;;23.59;48.29;98966.84;4873857;28;102557;-85
2021/07/22 10:26:51;;;;;;;;;3.00;2.67;;;;;23.59;48.34;98961.34;4890387;28;102410;-84
2021/07/22 10:29:18;;;;;;;;;5.00;4.00;;;;;23.63;48.36;98967.13;4853292;28;103008;-84
2021/07/22 10:31:47;;;;;;;;;4.00;4.00;;;;;23.63;48.25;98967.94;4894055;28;104138;-84
2021/07/22 10:34:16;;;;;;;;;3.00;3.00;;;;;23.65;48.15;98976.78;4896506;28;103492;-84
2021/07/22 10:36:45;;;;;;;;;4.00;3.00;;;;;23.65;48.33;98975.94;4891584;28;102367;-85
2021/07/22 10:39:13;;;;;;;;;4.33;4.00;;;;;23.67;48.25;98968.22;4909644;28;102569;-84
2021/07/22 10:41:41;;;;;;;;;4.00;2.67;;;;;23.64;48.29;98971.53;4901537;28;104238;-84
2021/07/22 10:44:14;;;;;;;;;3.00;3.00;;;;;23.69;48.34;98966.00;4886475;28;102762;-84
2021/07/22 10:46:55;;;;;;;;;3.00;3.00;;;;;23.70;48.13;98968.50;4894475;28;102609;-84
2021/07/22 10:49:38;;;;;;;;;4.33;4.00;;;;;23.70;48.15;98964.91;4910663;28;102531;-84
2021/07/22 10:52:06;;;;;;;;;2.33;2.33;;;;;23.72;48.07;98960.78;4829042;28;108748;-84
2021/07/22 10:54:48;;;;;;;;;2.67;2.67;;;;;23.72;48.28;98966.28;4904933;28;103247;-84
2021/07/22 10:57:33;;;;;;;;;3.33;3.00;;;;;23.72;48.31;98952.47;4896870;28;105009;-85
2021/07/22 11:00:04;;;;;;;;;6.00;3.33;;;;;23.76;48.19;98961.03;4887367;28;102660;-83
2021/07/22 11:02:43;;;;;;;;;2.67;2.67;;;;;23.74;48.27;98953.00;4870195;28;104129;-84
2021/07/22 11:05:31;;;;;;;;;3.00;2.67;;;;;23.75;48.18;98956.59;4910493;28;104325;-83
2021/07/22 11:08:31;;;;;;;;;2.00;2.00;;;;;23.76;48.05;98953.59;4900999;28;103757;-84
2021/07/22 11:11:09;;;;;;;;;4.00;4.00;;;;;23.76;48.16;98945.28;4788474;28;102454;-84
2021/07/22 11:13:40;;;;;;;;;4.00;4.00;;;;;23.75;48.40;98951.91;4828456;28;109018;-84
2021/07/22 11:16:09;;;;;;;;;3.00;3.00;;;;;23.77;48.11;98954.41;4895071;28;102319;-85
2021/07/22 11:18:43;;;;;;;;;4.67;4.00;;;;;23.78;48.35;98950.53;4885154;28;102244;-84
2021/07/22 11:21:22;;;;;;;;;3.00;2.33;;;;;23.78;48.09;98945.81;4895248;28;105535;-84
2021/07/22 11:24:20;;;;;;;;;5.00;4.00;;;;;23.78;48.29;98951.34;4902620;28;103332;-84
2021/07/22 11:26:52;;;;;;;;;2.00;1.67;;;;;23.79;48.16;98939.22;4825927;28;104561;-85
2021/07/22 11:29:23;;;;;;;;;4.00;3.33;;;;;23.76;48.35;98945.28;4883678;28;102719;-85
2021/07/22 11:31:55;;;;;;;;;2.33;2.33;;;;;23.78;48.29;98943.06;4883423;28;105721;-86
2021/07/22 11:34:29;;;;;;;;;2.67;2.67;;;;;23.79;48.16;98944.72;4878923;28;104631;-84
2021/07/22 11:36:59;;;;;;;;;2.00;2.00;;;;;23.79;48.17;98944.72;4885201;28;102297;-84
2021/07/22 11:39:32;;;;;;;;;3.33;3.33;;;;;23.74;48.06;98930.94;4906554;28;103029;-84
2021/07/22 11:42:07;;;;;;;;;3.00;2.00;;;;;23.81;48.24;98948.06;4911100;28;102229;-84
2021/07/22 11:44:35;;;;;;;;;3.00;3.00;;;;;23.81;48.11;98930.66;4882786;28;109050;-84
2021/07/22 11:47:15;;;;;;;;;4.00;4.00;;;;;23.82;48.13;98943.38;4889472;28;103247;-84
2021/07/22 11:49:44;;;;;;;;;1.67;1.67;;;;;23.82;48.20;98937.84;4906213;28;102310;-84
2021/07/22 11:52:11;;;;;;;;;3.00;3.00;;;;;23.82;48.29;98937.84;4889825;28;103865;-84
2021/07/22 11:54:38;;;;;;;;;3.33;2.33;;;;;23.82;48.20;98935.88;4903532;28;104269;-84
2021/07/22 11:57:05;;;;;;;;;2.00;2.00;;;;;23.81;48.34;98934.25;4902523;28;102196;-83
2021/07/22 11:59:36;;;;;;;;;2.33;2.33;;;;;23.82;48.17;98937.84;4889860;28;102252;-83
2021/07/22 12:02:05;;;;;;;;;2.33;2.00;;;;;23.81;48.22;98931.47;4897115;28;102473;-83
2021/07/22 12:04:33;;;;;;;;;2.00;2.00;;;;;23.82;48.42;98927.59;4882519;28;104185;-84
2021/07/22 12:07:04;;;;;;;;;2.00;2.00;;;;;23.81;48.39;98925.97;4893893;28;102406;-84
2021/07/22 12:09:31;;;;;;;;;2.00;2.00;;;;;23.82;48.22;98924.81;4899436;28;102139;-82
2021/07/22 12:12:01;;;;;;;;;2.00;2.00;;;;;23.82;48.37;98919.31;4901102;28;103153;-84
2021/07/22 12:14:32;;;;;;;;;3.00;3.00;;;;;23.82;48.15;98911.03;4857717;28;109401;-85
2021/07/22 12:17:02;;;;;;;;;2.00;2.00;;;;;23.83;48.35;98917.38;4898512;28;102137;-84
2021/07/22 12:19:31;;;;;;;;;2.00;2.00;;;;;23.83;48.26;98922.91;4898389;28;102198;-84
2021/07/22 12:22:25;;;;;;;;;2.33;2.00;;;;;23.82;48.21;98915.75;4867646;28;102770;-84
2021/07/22 12:25:09;;;;;;;;;2.00;2.00;;;;;23.82;48.51;98919.31;4890113;28;104023;-85
2021/07/22 12:27:43;;;;;;;;;2.33;2.00;;;;;23.83;48.38;98923.72;4832467;28;102781;-84
2021/07/22 12:30:13;;;;;;;;;2.33;2.33;;;;;23.83;48.33;98918.22;4885980;28;102979;-84
2021/07/22 12:32:58;;;;;;;;;1.33;1.33;;;;;23.82;48.38;98919.31;4878093;28;103455;-83
2021/07/22 12:35:41;;;;;;;;;2.67;2.67;;;;;23.83;48.36;98923.72;4901885;28;104482;-84
2021/07/22 12:38:09;;;;;;;;;3.33;3.00;;;;;23.82;48.37;98916.53;4828107;28;102409;-83
2021/07/22 12:40:46;;;;;;;;;2.67;2.67;;;;;23.82;48.26;98916.53;4892705;28;105549;-84
2021/07/22 12:43:17;;;;;;;;;2.00;2.00;;;;;23.82;48.42;98912.97;4911351;28;102541;-84
2021/07/22 12:45:45;;;;;;;;;2.33;2.33;;;;;23.83;48.23;98912.69;4902758;28;104147;-84
2021/07/22 12:48:12;;;;;;;;;1.67;1.00;;;;;23.82;48.31;98916.53;4887037;28;110369;-84
2021/07/22 12:50:44;;;;;;;;;3.33;3.00;;;;;23.83;48.48;98911.84;4890337;28;102279;-84
2021/07/22 12:53:20;;;;;;;;;3.00;2.67;;;;;23.83;48.28;98912.69;4886864;28;102176;-84
2021/07/22 12:55:58;;;;;;;;;3.00;3.00;;;;;23.82;48.28;98911.03;4887839;28;105551;-81
2021/07/22 12:58:33;;;;;;;;;1.67;1.67;;;;;23.82;48.45;98904.69;4889496;28;102655;-81
2021/07/22 13:01:02;;;;;;;;;1.67;1.67;;;;;23.82;48.54;98910.22;4900733;28;102150;-81
2021/07/22 13:03:30;;;;;;;;;3.67;3.00;;;;;23.82;48.33;98899.97;4891968;28;104177;-82
2021/07/22 13:05:57;;;;;;;;;3.00;3.00;;;;;23.82;48.47;98905.50;4905506;28;104121;-82
2021/07/22 13:08:24;;;;;;;;;3.00;2.33;;;;;23.82;48.46;98905.50;4900619;28;102496;-81
2021/07/22 13:10:51;;;;;;;;;2.00;2.00;;;;;23.82;48.52;98899.97;4895301;28;102561;-82
2021/07/22 13:13:19;;;;;;;;;3.00;3.00;;;;;23.83;48.48;98895.28;4905239;28;102692;-82
2021/07/22 13:15:46;;;;;;;;;1.00;1.00;;;;;23.83;48.42;98895.28;4895451;28;103246;-82
2021/07/22 13:18:13;;;;;;;;;3.67;3.67;;;;;23.83;48.26;98889.75;4892507;28;105609;-82
2021/07/22 13:20:58;;;;;;;;;2.00;2.00;;;;;23.83;48.33;98895.28;4885164;28;102545;-82
2021/07/22 13:23:28;;;;;;;;;2.00;2.00;;;;;23.83;48.61;98893.34;4897707;28;102940;-82
2021/07/22 13:25:55;;;;;;;;;3.00;2.00;;;;;23.84;48.51;98894.19;4892352;28;104208;-82
2021/07/22 13:28:23;;;;;;;;;2.00;2.00;;;;;23.85;48.45;98887.56;4898939;28;102950;-81